createdAt,value
2022-10-31T00:01:35.031Z,16.40
2022-10-31T00:04:01.981Z,16.40
2022-10-31T00:06:29.156Z,16.40
2022-10-31T00:08:58.579Z,16.30
2022-10-31T00:11:25.775Z,16.30
2022-10-31T00:13:59.575Z,16.30
2022-10-31T00:16:29.026Z,16.30
2022-10-31T00:18:58.440Z,16.20
2022-10-31T00:21:26.163Z,16.00
2022-10-31T00:23:55.329Z,15.90
2022-10-31T00:26:24.720Z,16.00
2022-10-31T00:28:51.998Z,16.00
2022-10-31T00:31:21.261Z,16.00
2022-10-31T00:33:50.650Z,16.00
2022-10-31T00:36:19.235Z,16.00
2022-10-31T00:38:47.238Z,16.00
2022-10-31T00:41:18.678Z,15.90
2022-10-31T00:43:45.683Z,15.90
2022-10-31T00:46:15.792Z,15.90
2022-10-31T00:48:43.322Z,16.00
2022-10-31T00:51:11.045Z,16.00
2022-10-31T00:53:37.735Z,15.90
2022-10-31T00:56:07.039Z,15.90
2022-10-31T00:58:33.730Z,15.90
2022-10-31T01:01:00.458Z,16.00
2022-10-31T01:03:29.479Z,15.90
2022-10-31T01:05:59.147Z,15.90
2022-10-31T01:08:26.531Z,15.90
2022-10-31T01:11:01.484Z,15.90
2022-10-31T01:13:28.456Z,15.90
2022-10-31T01:15:57.028Z,15.80
2022-10-31T01:18:23.907Z,15.90
2022-10-31T01:21:06.141Z,15.80
2022-10-31T01:23:35.615Z,15.70
2022-10-31T01:26:10.409Z,15.80
2022-10-31T01:28:44.460Z,15.80
2022-10-31T01:31:11.574Z,15.70
2022-10-31T01:33:38.660Z,15.70
2022-10-31T01:36:26.284Z,15.60
2022-10-31T01:38:54.762Z,15.70
2022-10-31T01:41:24.297Z,15.60
2022-10-31T01:43:59.888Z,15.60
2022-10-31T01:46:28.637Z,15.70
2022-10-31T01:48:56.768Z,15.60
2022-10-31T01:51:31.523Z,15.50
2022-10-31T01:54:05.556Z,15.50
2022-10-31T01:56:36.299Z,15.60
2022-10-31T01:59:06.113Z,15.60
2022-10-31T02:01:32.836Z,15.50
2022-10-31T02:04:01.809Z,15.40
2022-10-31T02:06:42.250Z,15.50
2022-10-31T02:09:09.052Z,15.50
2022-10-31T02:11:38.223Z,15.50
2022-10-31T02:14:09.520Z,15.50
2022-10-31T02:16:38.879Z,15.50
2022-10-31T02:19:11.792Z,15.40
2022-10-31T02:22:00.413Z,15.50
2022-10-31T02:24:29.860Z,15.40
2022-10-31T02:27:14.424Z,15.50
2022-10-31T02:30:08.155Z,15.50
2022-10-31T02:32:52.694Z,15.40
2022-10-31T02:35:37.955Z,15.30
2022-10-31T02:38:19.879Z,15.30
2022-10-31T02:41:15.928Z,15.30
2022-10-31T02:43:54.592Z,15.30
2022-10-31T02:46:37.584Z,15.30
2022-10-31T02:49:12.595Z,15.10
2022-10-31T02:51:44.379Z,14.80
2022-10-31T02:54:24.073Z,14.80
2022-10-31T02:56:53.676Z,14.80
2022-10-31T02:59:20.858Z,14.80
2022-10-31T03:01:59.059Z,14.80
2022-10-31T03:04:59.113Z,14.80
2022-10-31T03:07:40.241Z,14.90
2022-10-31T03:10:37.475Z,15.00
2022-10-31T03:13:15.231Z,15.00
2022-10-31T03:15:45.854Z,14.90
2022-10-31T03:18:30.985Z,14.80
2022-10-31T03:21:06.559Z,14.80
2022-10-31T03:23:35.242Z,15.00
2022-10-31T03:26:07.938Z,15.00
2022-10-31T03:28:51.054Z,14.90
2022-10-31T03:31:22.516Z,14.90
2022-10-31T03:33:51.895Z,14.80
2022-10-31T03:36:19.855Z,14.80
2022-10-31T03:38:48.128Z,14.90
2022-10-31T03:41:24.671Z,14.90
2022-10-31T03:44:00.834Z,14.80
2022-10-31T03:46:28.373Z,14.80
2022-10-31T03:48:55.331Z,14.80
2022-10-31T03:51:45.012Z,14.80
2022-10-31T03:54:23.872Z,14.90
2022-10-31T03:57:07.826Z,14.90
2022-10-31T03:59:38.900Z,14.90
2022-10-31T04:02:11.728Z,14.80
2022-10-31T04:04:41.450Z,14.70
2022-10-31T04:07:12.557Z,14.70
2022-10-31T04:09:46.370Z,14.80
2022-10-31T04:12:16.485Z,14.80
2022-10-31T04:14:48.756Z,14.80
2022-10-31T04:17:19.446Z,14.80
2022-10-31T04:19:46.170Z,14.80
2022-10-31T04:22:12.970Z,14.80
2022-10-31T04:24:42.199Z,14.80
2022-10-31T04:27:09.024Z,14.80
2022-10-31T04:29:35.718Z,14.80
2022-10-31T04:32:04.582Z,14.80
2022-10-31T04:34:31.219Z,14.70
2022-10-31T04:37:00.413Z,14.70
2022-10-31T04:39:29.355Z,14.70
2022-10-31T04:42:00.666Z,14.70
2022-10-31T04:44:29.859Z,14.70
2022-10-31T04:46:56.512Z,14.60
2022-10-31T04:49:25.381Z,14.60
2022-10-31T04:51:52.167Z,14.60
2022-10-31T04:54:23.474Z,14.70
2022-10-31T04:56:52.267Z,14.60
2022-10-31T04:59:18.961Z,14.50
2022-10-31T05:01:48.003Z,14.50
2022-10-31T05:04:14.771Z,14.50
2022-10-31T05:06:41.431Z,14.40
2022-10-31T05:09:08.055Z,14.40
2022-10-31T05:11:34.808Z,14.40
2022-10-31T05:14:01.480Z,14.40
2022-10-31T05:16:31.362Z,14.40
2022-10-31T05:18:58.188Z,14.40
2022-10-31T05:21:24.971Z,14.50
2022-10-31T05:23:51.934Z,14.40
2022-10-31T05:26:18.637Z,14.40
2022-10-31T05:28:45.345Z,14.30
2022-10-31T05:31:16.648Z,14.30
2022-10-31T05:33:43.353Z,14.20
2022-10-31T05:36:12.420Z,14.30
2022-10-31T05:38:39.128Z,14.30
2022-10-31T05:41:08.048Z,14.30
2022-10-31T05:43:34.719Z,14.30
2022-10-31T05:46:01.475Z,14.20
2022-10-31T05:48:30.340Z,14.20
2022-10-31T05:50:57.084Z,14.20
2022-10-31T05:53:23.737Z,14.10
2022-10-31T05:55:52.943Z,14.10
2022-10-31T05:58:19.696Z,14.10
2022-10-31T06:00:47.576Z,14.10
2022-10-31T06:03:14.267Z,14.10
2022-10-31T06:05:49.204Z,14.10
2022-10-31T06:08:19.080Z,14.00
2022-10-31T06:10:48.224Z,14.00
2022-10-31T06:13:19.588Z,14.00
2022-10-31T06:15:48.485Z,14.00
2022-10-31T06:18:22.433Z,14.00
2022-10-31T06:20:49.182Z,14.00
2022-10-31T06:23:15.863Z,14.00
2022-10-31T06:25:50.264Z,13.90
2022-10-31T06:28:17.019Z,13.90
2022-10-31T06:30:46.312Z,13.90
2022-10-31T06:33:13.045Z,13.90
2022-10-31T06:35:45.399Z,13.90
2022-10-31T06:38:12.061Z,13.90
2022-10-31T06:40:38.785Z,13.90
2022-10-31T06:43:12.182Z,13.90
2022-10-31T06:45:44.554Z,13.90
2022-10-31T06:48:18.053Z,13.80
2022-10-31T06:50:47.708Z,13.90
2022-10-31T06:53:16.889Z,14.00
2022-10-31T06:55:43.822Z,13.90
2022-10-31T06:58:11.557Z,13.90
2022-10-31T07:00:45.562Z,13.90
2022-10-31T07:03:16.526Z,13.90
2022-10-31T07:05:48.285Z,13.90
2022-10-31T07:08:17.979Z,13.90
2022-10-31T07:10:55.136Z,13.90
2022-10-31T07:13:28.535Z,14.00
2022-10-31T07:16:00.543Z,14.00
2022-10-31T07:18:29.970Z,14.00
2022-10-31T07:21:01.374Z,14.00
2022-10-31T07:23:28.202Z,14.10
2022-10-31T07:26:00.740Z,14.00
2022-10-31T07:28:28.123Z,14.10
2022-10-31T07:30:58.821Z,14.10
2022-10-31T07:33:29.136Z,14.20
2022-10-31T07:35:55.816Z,14.20
2022-10-31T07:38:24.737Z,14.20
2022-10-31T07:40:53.732Z,14.20
2022-10-31T07:43:23.610Z,14.30
2022-10-31T07:45:54.494Z,14.20
2022-10-31T07:48:21.753Z,14.20
2022-10-31T07:50:48.592Z,14.10
2022-10-31T07:53:16.188Z,14.10
2022-10-31T07:55:46.583Z,14.10
2022-10-31T07:58:15.789Z,14.10
2022-10-31T08:00:44.700Z,14.10
2022-10-31T08:03:14.084Z,14.20
2022-10-31T08:05:45.857Z,14.20
2022-10-31T08:08:15.772Z,14.20
2022-10-31T08:10:42.912Z,14.20
2022-10-31T08:13:12.314Z,14.30
2022-10-31T08:15:42.109Z,14.30
2022-10-31T08:18:15.721Z,14.20
2022-10-31T08:20:43.537Z,14.20
2022-10-31T08:23:11.771Z,14.30
2022-10-31T08:25:42.879Z,14.20
2022-10-31T08:28:12.824Z,14.20
2022-10-31T08:30:40.890Z,14.20
2022-10-31T08:33:11.907Z,14.20
2022-10-31T08:35:38.807Z,14.30
2022-10-31T08:38:05.705Z,14.30
2022-10-31T08:40:33.696Z,14.30
2022-10-31T08:43:13.706Z,14.40
2022-10-31T08:45:41.164Z,14.40
2022-10-31T08:48:11.798Z,14.40
2022-10-31T08:50:39.192Z,14.50
2022-10-31T08:53:17.395Z,14.60
2022-10-31T08:55:47.777Z,14.60
2022-10-31T08:58:23.494Z,14.70
2022-10-31T09:00:52.973Z,14.80
2022-10-31T09:03:25.670Z,14.90
2022-10-31T09:05:56.723Z,14.90
2022-10-31T09:08:23.706Z,14.90
2022-10-31T09:10:53.158Z,14.80
2022-10-31T09:13:27.862Z,15.00
2022-10-31T09:15:55.042Z,15.10
2022-10-31T09:18:24.577Z,15.10
2022-10-31T09:20:53.938Z,15.10
2022-10-31T09:23:22.988Z,15.10
2022-10-31T09:25:51.645Z,15.20
2022-10-31T09:28:21.979Z,15.10
2022-10-31T09:30:50.456Z,15.20
2022-10-31T09:33:20.680Z,15.30
2022-10-31T09:35:50.066Z,15.30
2022-10-31T09:38:20.196Z,15.30
2022-10-31T09:41:02.440Z,15.30
2022-10-31T09:43:50.937Z,15.50
2022-10-31T09:46:23.457Z,15.50
2022-10-31T09:49:05.405Z,15.60
2022-10-31T09:51:36.956Z,15.70
2022-10-31T09:54:11.656Z,15.80
2022-10-31T09:56:38.963Z,15.80
2022-10-31T09:59:12.609Z,15.90
2022-10-31T10:01:51.764Z,16.00
2022-10-31T10:04:40.274Z,16.10
2022-10-31T10:07:18.997Z,16.30
2022-10-31T10:09:46.759Z,16.30
2022-10-31T10:12:35.431Z,16.30
2022-10-31T10:15:31.031Z,16.40
2022-10-31T10:18:01.823Z,16.60
2022-10-31T10:20:32.704Z,16.70
2022-10-31T10:23:18.415Z,16.90
2022-10-31T10:25:50.468Z,17.20
2022-10-31T10:28:26.196Z,17.30
2022-10-31T10:31:04.444Z,17.40
2022-10-31T10:33:31.103Z,17.30
2022-10-31T10:36:04.882Z,17.40
2022-10-31T10:38:48.012Z,17.40
2022-10-31T10:41:18.623Z,17.60
2022-10-31T10:46:38.348Z,17.70
2022-10-31T10:49:19.046Z,17.60
2022-10-31T10:55:10.858Z,17.50
2022-10-31T10:57:47.937Z,17.50
2022-10-31T11:00:22.515Z,17.50
2022-10-31T11:02:49.562Z,17.60
2022-10-31T11:05:41.633Z,17.80
2022-10-31T11:08:08.988Z,17.80
2022-10-31T11:10:36.423Z,18.00
2022-10-31T11:13:18.439Z,18.00
2022-10-31T11:16:13.317Z,18.20
2022-10-31T11:18:46.364Z,18.50
2022-10-31T11:21:35.726Z,19.00
2022-10-31T11:24:11.426Z,19.30
2022-10-31T11:26:40.323Z,19.30
2022-10-31T11:29:22.047Z,19.40
2022-10-31T11:31:51.925Z,19.20
2022-10-31T11:34:31.914Z,18.90
2022-10-31T11:37:17.983Z,18.80
2022-10-31T11:39:54.339Z,18.80
2022-10-31T11:42:37.051Z,19.00
2022-10-31T11:45:15.043Z,19.20
2022-10-31T11:47:46.877Z,19.40
2022-10-31T11:50:21.998Z,19.40
2022-10-31T11:52:49.978Z,19.40
2022-10-31T11:55:31.410Z,19.40
2022-10-31T11:57:58.836Z,19.60
2022-10-31T12:00:32.074Z,19.80
2022-10-31T12:03:23.898Z,20.10
2022-10-31T12:06:02.789Z,20.30
2022-10-31T12:08:35.769Z,20.00
2022-10-31T12:11:05.332Z,20.30
2022-10-31T12:14:03.993Z,20.50
2022-10-31T12:16:56.014Z,20.70
2022-10-31T12:19:37.744Z,20.80
2022-10-31T12:22:10.283Z,21.00
2022-10-31T12:24:49.081Z,21.00
2022-10-31T12:27:53.445Z,21.10
2022-10-31T12:30:50.393Z,20.80
2022-10-31T12:33:22.564Z,21.00
2022-10-31T12:36:03.558Z,21.20
2022-10-31T12:38:43.975Z,21.30
2022-10-31T12:41:19.716Z,21.30
2022-10-31T12:44:03.401Z,21.10
2022-10-31T12:46:54.712Z,21.00
2022-10-31T12:49:36.471Z,20.60
2022-10-31T12:52:29.398Z,20.40
2022-10-31T12:55:05.650Z,20.20
2022-10-31T12:57:39.295Z,20.00
2022-10-31T13:00:26.502Z,19.90
2022-10-31T13:03:02.552Z,19.90
2022-10-31T13:05:38.111Z,19.80
2022-10-31T13:08:10.849Z,19.80
2022-10-31T13:10:53.432Z,19.70
2022-10-31T13:13:28.558Z,19.50
2022-10-31T13:16:01.199Z,19.50
2022-10-31T13:18:51.398Z,19.40
2022-10-31T13:21:56.144Z,19.50
2022-10-31T13:24:30.718Z,19.50
2022-10-31T13:27:02.558Z,19.50
2022-10-31T13:29:39.004Z,19.60
2022-10-31T13:32:07.010Z,19.60
2022-10-31T13:34:51.673Z,19.50
2022-10-31T13:37:30.628Z,19.50
2022-10-31T13:40:22.302Z,19.50
2022-10-31T13:43:06.293Z,19.50
2022-10-31T13:45:33.089Z,19.40
2022-10-31T13:48:15.097Z,19.40
2022-10-31T13:50:47.946Z,19.40
2022-10-31T13:53:17.718Z,19.40
2022-10-31T13:55:50.523Z,19.40
2022-10-31T13:58:28.406Z,19.40
2022-10-31T14:01:16.434Z,19.30
2022-10-31T14:06:59.529Z,19.30
2022-10-31T14:09:31.496Z,19.30
2022-10-31T14:12:15.133Z,19.30
2022-10-31T14:14:51.942Z,19.30
2022-10-31T14:17:25.965Z,19.20
2022-10-31T14:20:22.968Z,19.20
2022-10-31T14:22:52.511Z,19.20
2022-10-31T14:25:33.351Z,19.10
2022-10-31T14:28:03.860Z,19.10
2022-10-31T14:30:32.227Z,19.10
2022-10-31T14:33:13.582Z,19.00
2022-10-31T14:35:58.656Z,19.00
2022-10-31T14:38:25.312Z,19.00
2022-10-31T14:41:19.174Z,19.00
2022-10-31T14:44:06.255Z,19.10
2022-10-31T14:46:47.831Z,19.00
2022-10-31T14:50:09.709Z,19.10
2022-10-31T14:52:41.809Z,19.10
2022-10-31T14:55:13.971Z,19.20
2022-10-31T14:57:53.595Z,19.10
2022-10-31T15:00:22.461Z,19.20
2022-10-31T15:03:22.796Z,19.20
2022-10-31T15:06:02.382Z,19.20
2022-10-31T15:08:43.481Z,19.30
2022-10-31T15:11:13.052Z,19.30
2022-10-31T15:13:54.423Z,19.40
2022-10-31T15:16:26.855Z,19.40
2022-10-31T15:19:05.321Z,19.50
2022-10-31T15:21:36.030Z,19.70
2022-10-31T15:24:05.851Z,19.70
2022-10-31T15:26:38.645Z,19.80
2022-10-31T15:29:12.175Z,19.80
2022-10-31T15:31:38.892Z,19.60
2022-10-31T15:34:20.437Z,19.50
2022-10-31T15:36:51.113Z,19.40
2022-10-31T15:39:18.593Z,19.30
2022-10-31T15:41:55.101Z,19.30
2022-10-31T15:44:32.799Z,19.20
2022-10-31T15:47:20.307Z,19.10
2022-10-31T15:49:53.938Z,19.00
2022-10-31T15:52:30.075Z,18.90
2022-10-31T15:55:24.051Z,18.90
2022-10-31T15:58:05.260Z,18.80
2022-10-31T16:00:34.976Z,18.80
2022-10-31T16:03:11.316Z,18.60
2022-10-31T16:05:46.597Z,18.60
2022-10-31T16:08:33.892Z,18.50
2022-10-31T16:11:13.409Z,18.50
2022-10-31T16:14:01.308Z,18.40
2022-10-31T16:16:35.532Z,18.30
2022-10-31T16:19:05.511Z,18.30
2022-10-31T16:21:35.874Z,18.20
2022-10-31T16:24:16.360Z,18.20
2022-10-31T16:26:47.678Z,18.20
2022-10-31T16:29:44.602Z,18.20
2022-10-31T16:32:54.660Z,18.20
2022-10-31T16:35:27.442Z,18.10
2022-10-31T16:37:57.346Z,18.10
2022-10-31T16:40:26.780Z,18.10
2022-10-31T16:42:59.173Z,18.00
2022-10-31T16:45:31.045Z,18.00
2022-10-31T16:48:11.719Z,18.00
2022-10-31T16:50:38.954Z,17.90
2022-10-31T16:53:13.850Z,17.90
2022-10-31T16:55:57.626Z,17.90
2022-10-31T16:58:33.064Z,17.90
2022-10-31T17:01:02.602Z,17.90
2022-10-31T17:03:29.407Z,17.90
2022-10-31T17:05:56.441Z,17.90
2022-10-31T17:08:24.664Z,17.80
2022-10-31T17:10:55.524Z,17.70
2022-10-31T17:13:25.178Z,17.70
2022-10-31T17:16:03.241Z,17.70
2022-10-31T17:18:30.870Z,17.70
2022-10-31T17:20:59.923Z,17.70
2022-10-31T17:23:29.489Z,17.60
2022-10-31T17:25:57.120Z,17.60
2022-10-31T17:28:25.066Z,17.60
2022-10-31T17:30:52.047Z,17.50
2022-10-31T17:33:21.808Z,17.60
2022-10-31T17:35:49.500Z,17.50
2022-10-31T17:38:21.124Z,17.50
2022-10-31T17:40:52.323Z,17.50
2022-10-31T17:43:19.116Z,17.50
2022-10-31T17:45:48.033Z,17.50
2022-10-31T17:48:14.744Z,17.50
2022-10-31T17:50:41.775Z,17.50
2022-10-31T17:53:11.521Z,17.50
2022-10-31T17:55:38.275Z,17.50
2022-10-31T17:58:07.223Z,17.50
2022-10-31T18:00:34.407Z,17.40
2022-10-31T18:03:03.756Z,17.40
2022-10-31T18:05:31.051Z,17.40
2022-10-31T18:08:03.720Z,17.40
2022-10-31T18:10:33.553Z,17.40
2022-10-31T18:13:01.711Z,17.40
2022-10-31T18:15:31.193Z,17.40
2022-10-31T18:17:58.026Z,17.40
2022-10-31T18:20:24.836Z,17.40
2022-10-31T18:22:51.536Z,17.40
2022-10-31T18:25:18.328Z,17.40
2022-10-31T18:27:45.023Z,17.40
2022-10-31T18:30:12.034Z,17.40
2022-10-31T18:32:41.013Z,17.40
2022-10-31T18:35:07.916Z,17.40
2022-10-31T18:37:36.832Z,17.40
2022-10-31T18:40:03.803Z,17.40
2022-10-31T18:42:30.467Z,17.30
2022-10-31T18:45:06.686Z,17.30
2022-10-31T18:47:43.827Z,17.20
2022-10-31T18:50:10.907Z,17.20
2022-10-31T18:52:42.283Z,17.20
2022-10-31T18:55:09.359Z,17.20
2022-10-31T18:57:38.560Z,17.10
2022-10-31T19:00:06.759Z,17.10
2022-10-31T19:02:41.845Z,17.10
2022-10-31T19:05:08.619Z,17.10
2022-10-31T19:07:37.547Z,17.10
2022-10-31T19:10:06.724Z,17.00
2022-10-31T19:12:36.215Z,17.10
2022-10-31T19:15:06.884Z,17.10
2022-10-31T19:17:33.823Z,17.00
2022-10-31T19:20:01.052Z,17.00
2022-10-31T19:22:33.855Z,16.90
2022-10-31T19:25:07.723Z,16.90
2022-10-31T19:27:37.181Z,16.90
2022-10-31T19:30:07.454Z,16.90
2022-10-31T19:32:34.497Z,16.90
2022-10-31T19:35:01.338Z,16.90
2022-10-31T19:37:39.633Z,16.80
2022-10-31T19:40:09.039Z,16.80
2022-10-31T19:42:36.872Z,16.80
2022-10-31T19:45:07.091Z,16.80
2022-10-31T19:47:39.619Z,16.80
2022-10-31T19:50:14.114Z,16.80
2022-10-31T19:52:40.888Z,16.70
2022-10-31T19:55:13.067Z,16.70
2022-10-31T19:58:00.940Z,16.70
2022-10-31T20:00:28.915Z,16.70
2022-10-31T20:02:57.861Z,16.70
2022-10-31T20:05:27.232Z,16.70
2022-10-31T20:07:56.688Z,16.70
2022-10-31T20:10:23.840Z,16.60
2022-10-31T20:12:50.638Z,16.60
2022-10-31T20:15:17.535Z,16.60
2022-10-31T20:17:44.209Z,16.60
2022-10-31T20:20:13.528Z,16.60
2022-10-31T20:22:42.820Z,16.60
2022-10-31T20:25:09.573Z,16.60
2022-10-31T20:27:41.172Z,16.60
2022-10-31T20:30:08.656Z,16.50
2022-10-31T20:32:36.019Z,16.60
2022-10-31T20:35:02.733Z,16.60
2022-10-31T20:37:31.866Z,16.60
2022-10-31T20:39:58.584Z,16.50
2022-10-31T20:42:25.332Z,16.60
2022-10-31T20:44:52.174Z,16.50
2022-10-31T20:47:23.438Z,16.50
2022-10-31T20:49:54.946Z,16.50
2022-10-31T20:52:23.839Z,16.50
2022-10-31T20:54:50.556Z,16.50
2022-10-31T20:57:19.792Z,16.40
2022-10-31T20:59:50.001Z,16.40
2022-10-31T21:02:16.834Z,16.40
2022-10-31T21:04:43.809Z,16.40
2022-10-31T21:07:10.519Z,16.40
2022-10-31T21:09:41.894Z,16.30
2022-10-31T21:12:11.182Z,16.30
2022-10-31T21:14:37.852Z,16.30
2022-10-31T21:17:05.168Z,16.30
2022-10-31T21:19:31.819Z,16.30
2022-10-31T21:21:58.674Z,16.30
2022-10-31T21:24:27.853Z,16.20
2022-10-31T21:27:01.182Z,16.20
2022-10-31T21:29:31.480Z,16.20
2022-10-31T21:32:00.372Z,16.20
2022-10-31T21:34:27.048Z,16.20
2022-10-31T21:36:56.234Z,16.20
2022-10-31T21:39:23.005Z,16.20
2022-10-31T21:41:49.874Z,16.20
2022-10-31T21:44:16.548Z,16.20
2022-10-31T21:46:47.314Z,16.20
2022-10-31T21:49:16.466Z,16.20
2022-10-31T21:51:44.096Z,16.20
2022-10-31T21:54:28.263Z,16.30
2022-10-31T21:56:58.718Z,16.20
2022-10-31T21:59:25.737Z,16.30
2022-10-31T22:01:57.952Z,16.20
2022-10-31T22:04:24.886Z,16.20
2022-10-31T22:06:54.204Z,16.20
2022-10-31T22:09:23.163Z,16.30
2022-10-31T22:11:52.201Z,16.30
2022-10-31T22:14:21.069Z,16.30
2022-10-31T22:16:49.932Z,16.20
2022-10-31T22:19:16.722Z,16.20
2022-10-31T22:21:49.069Z,16.30
2022-10-31T22:24:21.881Z,16.20
2022-10-31T22:26:48.598Z,16.30
2022-10-31T22:29:17.356Z,16.30
2022-10-31T22:31:49.405Z,16.30
2022-10-31T22:34:25.901Z,16.30
2022-10-31T22:36:54.689Z,16.20
2022-10-31T22:39:21.492Z,16.30
2022-10-31T22:41:48.188Z,16.20
2022-10-31T22:44:17.110Z,16.30
2022-10-31T22:46:43.832Z,16.30
2022-10-31T22:49:19.175Z,16.30
2022-10-31T22:51:46.176Z,16.30
2022-10-31T22:54:17.238Z,16.30
2022-10-31T22:56:44.628Z,16.30
2022-10-31T22:59:15.420Z,16.20
2022-10-31T23:01:47.328Z,16.30
2022-10-31T23:04:16.344Z,16.30
2022-10-31T23:06:45.837Z,16.20
2022-10-31T23:09:15.403Z,16.30
2022-10-31T23:11:42.878Z,16.30
2022-10-31T23:14:18.562Z,16.30
2022-10-31T23:16:51.478Z,16.30
2022-10-31T23:19:22.456Z,16.30
2022-10-31T23:21:54.967Z,16.30
2022-10-31T23:24:47.999Z,16.30
2022-10-31T23:27:14.644Z,16.40
2022-10-31T23:29:53.393Z,16.40
2022-10-31T23:32:27.191Z,16.30
2022-10-31T23:34:55.964Z,16.40
2022-10-31T23:37:25.840Z,16.30
2022-10-31T23:39:53.277Z,16.30
2022-10-31T23:42:22.780Z,16.30
2022-10-31T23:44:50.038Z,16.40
2022-10-31T23:47:17.097Z,16.40
2022-10-31T23:49:46.132Z,16.40
2022-10-31T23:52:13.304Z,16.50
2022-10-31T23:54:42.944Z,16.50
2022-10-31T23:57:14.526Z,16.60
2022-10-31T23:59:41.508Z,16.60
